Accueil
METAR-TAF:

METAR-TAF

Aéroports :

Base aérienne de Chièvres

Chièvres, Belgique

latitude: 50-34N, longitude: 003-50E, altitude: 60 m

Observation

Le bulletin a été fait il y a 24 minutes, à 02:55 UTC
Vent 1 kt de direction variable
Température 12°C
Humidité 71%
Pression 1018 hPa
Visibilité 10 km ou plus

METAR: EBCV 020255Z AUTO VRB01KT 9999 NCD 12/07 Q1018 BLU

Heure: 05:19 (03:19 UTC)

Prévision

Le bulletin a été fait il y a 11 heures et 23 minutes, à 15:56 UTC
Prévision valable du 01 à 19 UTC au 02 à 07 UTC
Vent 7 kt de est/nord-est
Visibilité 10 km ou plus
Ciel clair
Temporairement
du 01 à 19 UTC au 02 à 07 UTC
Nuages épars à une hauteur de 7500 ft

TAF: EBCV 011556Z 0119/0207 06007KT 9999 SKC TEMPO 0119/0207 SCT075 BY EBWM

Observations et prévisions météorologiques de plus de 4000 aéroports (messages METAR et TAF).

Les stations disponibles sont représentées par des disques jaunes et rouges sur la carte.

Passer la souris dessus pour voir le nom de la station.

Cliquer dessus pour voir les observations et prévisions météorologiques.

Pour changer de carte: cliquez sur les boutons verts avec une croix noire pour zoomer, sur le bouton vert avec un tiret pour effectuer un zoom arrière, ou sur les flèches vertes pour les cartes adjacentes.


METAR-TAF: